Time;durP1;ratioP1;P1;durP2;ratioP2;P2;SDS_P1;SDS_P2;PMS_P1;PMS_P2;Temp;Humidity;BMP_temperature;BMP_pressure;BME280_temperature;BME280_humidity;BME280_pressure;Samples;Min_cycle;Max_cycle;Signal;HPM_P1;HPM_P2
2021/04/18 00:01:57;;;;;;;8.23;3.43;;;4.90;99.90;;;;;;5066345;28;20197;-83
2021/04/18 00:04:23;;;;;;;10.87;3.90;;;4.90;99.90;;;;;;5068314;28;20228;-83
2021/04/18 00:06:49;;;;;;;7.03;3.07;;;4.90;99.90;;;;;;5054271;28;20602;-82
2021/04/18 00:09:17;;;;;;;7.67;3.33;;;4.90;99.90;;;;;;5048490;28;20194;-81
2021/04/18 00:11:43;;;;;;;7.87;3.60;;;4.90;99.90;;;;;;5048060;28;20237;-82
2021/04/18 00:14:10;;;;;;;9.10;4.77;;;5.00;99.90;;;;;;5048590;28;20210;-83
2021/04/18 00:16:37;;;;;;;12.10;5.07;;;4.90;99.90;;;;;;5048184;28;20209;-84
2021/04/18 00:19:04;;;;;;;10.53;5.47;;;5.00;99.90;;;;;;5049261;28;20198;-82
2021/04/18 00:21:30;;;;;;;9.67;5.43;;;5.00;99.90;;;;;;5048790;28;20222;-84
2021/04/18 00:23:57;;;;;;;11.03;4.70;;;5.00;99.90;;;;;;5048636;28;20263;-82
2021/04/18 00:26:24;;;;;;;5.80;4.10;;;5.00;99.90;;;;;;5048165;28;20202;-79
2021/04/18 00:28:51;;;;;;;12.33;5.10;;;5.00;99.90;;;;;;5047710;28;20237;-83
2021/04/18 00:31:17;;;;;;;11.77;5.17;;;5.10;99.90;;;;;;5047160;28;20205;-83
2021/04/18 00:33:43;;;;;;;17.37;5.50;;;5.10;99.90;;;;;;5047291;28;20210;-84
2021/04/18 00:36:10;;;;;;;9.70;5.10;;;5.10;99.90;;;;;;5047422;28;20606;-85
2021/04/18 00:38:37;;;;;;;10.00;4.67;;;5.10;99.90;;;;;;5046804;28;20206;-83
2021/04/18 00:41:03;;;;;;;11.67;5.07;;;5.10;99.90;;;;;;5047288;28;20250;-78
2021/04/18 00:43:30;;;;;;;10.80;5.10;;;5.20;99.90;;;;;;5047712;28;20214;-83
2021/04/18 00:45:56;;;;;;;16.17;5.67;;;5.20;99.90;;;;;;5047414;28;20206;-79
2021/04/18 00:48:23;;;;;;;13.17;5.63;;;5.20;99.90;;;;;;5047310;28;20218;-86
2021/04/18 00:50:49;;;;;;;9.93;5.47;;;5.30;99.90;;;;;;5047644;28;20883;-86
2021/04/18 00:53:16;;;;;;;15.07;5.17;;;5.30;99.90;;;;;;5048510;28;20237;-84
2021/04/18 00:55:43;;;;;;;15.37;6.27;;;5.40;99.90;;;;;;5047609;28;20645;-82
2021/04/18 00:58:11;;;;;;;10.30;4.93;;;5.40;99.90;;;;;;5048033;28;20194;-84
2021/04/18 01:00:39;;;;;;;9.07;4.40;;;5.50;99.90;;;;;;5047147;28;20217;-84
2021/04/18 01:03:06;;;;;;;10.17;4.80;;;5.50;99.90;;;;;;5047221;28;20221;-78
2021/04/18 01:05:33;;;;;;;12.40;5.20;;;5.50;99.90;;;;;;5046154;28;20198;-80
2021/04/18 01:08:00;;;;;;;9.93;5.27;;;5.50;99.90;;;;;;5046955;28;20210;-79
2021/04/18 01:10:26;;;;;;;7.53;4.07;;;5.50;99.90;;;;;;5045791;28;20201;-83
2021/04/18 01:12:52;;;;;;;11.47;4.77;;;5.50;99.90;;;;;;5045241;28;20198;-85
2021/04/18 01:15:19;;;;;;;10.20;4.33;;;5.50;99.90;;;;;;5062384;28;20221;-78
2021/04/18 01:17:47;;;;;;;12.17;5.23;;;5.50;99.90;;;;;;5065214;28;20216;-82
2021/04/18 01:20:17;;;;;;;11.33;5.30;;;5.50;99.90;;;;;;5044673;28;20650;-80
2021/04/18 01:22:45;;;;;;;19.27;7.10;;;5.50;99.90;;;;;;5045030;28;20193;-85
2021/04/18 01:25:13;;;;;;;8.40;5.33;;;5.60;99.90;;;;;;5045681;28;20205;-85
2021/04/18 01:27:42;;;;;;;11.43;4.80;;;5.60;99.90;;;;;;5044288;28;20320;-83
2021/04/18 01:30:10;;;;;;;13.63;5.37;;;5.60;99.90;;;;;;5044059;28;20225;-81
2021/04/18 01:32:37;;;;;;;17.03;5.43;;;5.60;99.90;;;;;;5042913;28;20511;-83
2021/04/18 01:35:05;;;;;;;12.13;6.20;;;5.50;99.90;;;;;;5045150;28;20288;-82
2021/04/18 01:37:32;;;;;;;14.40;6.53;;;5.50;99.90;;;;;;5045093;28;20194;-83
2021/04/18 01:39:59;;;;;;;15.20;5.93;;;5.60;99.90;;;;;;5044416;28;20324;-80
2021/04/18 01:42:27;;;;;;;15.70;6.20;;;5.60;99.90;;;;;;5045902;28;20237;-84
2021/04/18 01:44:53;;;;;;;14.37;6.83;;;5.70;99.90;;;;;;5044957;28;20288;-81
2021/04/18 01:47:20;;;;;;;12.50;5.93;;;5.70;99.90;;;;;;5049309;28;20197;-81
2021/04/18 01:49:46;;;;;;;15.17;7.53;;;5.70;99.90;;;;;;5049806;28;20641;-85
2021/04/18 01:52:12;;;;;;;13.93;6.43;;;5.60;99.90;;;;;;5049290;28;20223;-80
2021/04/18 01:54:39;;;;;;;10.80;5.70;;;5.60;99.90;;;;;;5048287;28;20198;-78
2021/04/18 01:57:07;;;;;;;9.47;6.13;;;5.60;99.90;;;;;;5059063;28;20209;-79
2021/04/18 01:59:33;;;;;;;12.73;6.10;;;5.60;99.90;;;;;;5070536;28;20204;-81
2021/04/18 02:02:06;;;;;;;8.30;5.87;;;5.60;99.90;;;;;;5060454;28;20236;-82
2021/04/18 02:04:32;;;;;;;15.33;6.83;;;5.60;99.90;;;;;;5049828;28;20205;-84
2021/04/18 02:06:59;;;;;;;12.00;6.20;;;5.60;99.90;;;;;;5049759;28;20213;-84
2021/04/18 02:09:25;;;;;;;11.37;6.23;;;5.60;99.90;;;;;;5055886;28;20597;-82
2021/04/18 02:11:51;;;;;;;11.03;5.87;;;5.60;99.90;;;;;;5068968;28;20609;-80
2021/04/18 02:14:19;;;;;;;8.00;5.30;;;5.60;99.90;;;;;;5061454;28;20937;-79
2021/04/18 02:16:45;;;;;;;9.57;5.50;;;5.60;99.90;;;;;;5051718;28;20235;-78
2021/04/18 02:19:11;;;;;;;8.37;5.83;;;5.60;99.90;;;;;;5054092;28;20209;-80
2021/04/18 02:21:37;;;;;;;10.97;6.37;;;5.60;99.90;;;;;;5058712;28;20226;-79
2021/04/18 02:24:04;;;;;;;8.67;5.27;;;5.60;99.90;;;;;;5057773;28;20206;-85
2021/04/18 02:26:30;;;;;;;11.13;5.40;;;5.60;99.90;;;;;;5053875;28;20570;-85
2021/04/18 02:28:56;;;;;;;8.03;4.80;;;5.50;99.90;;;;;;5052584;28;20950;-85
2021/04/18 02:31:24;;;;;;;7.27;5.00;;;5.50;99.90;;;;;;5051362;28;20650;-85
2021/04/18 02:33:50;;;;;;;6.67;4.83;;;5.50;99.90;;;;;;5049289;28;20629;-82
2021/04/18 02:36:16;;;;;;;8.53;5.57;;;5.50;99.90;;;;;;5048685;28;20212;-86
2021/04/18 02:38:42;;;;;;;8.73;6.20;;;5.50;99.90;;;;;;5049490;28;20202;-83
2021/04/18 02:41:09;;;;;;;14.53;6.37;;;5.60;99.90;;;;;;5049826;28;20317;-81
2021/04/18 02:43:35;;;;;;;11.73;6.07;;;5.60;99.90;;;;;;5060024;28;20220;-83
2021/04/18 02:46:02;;;;;;;8.73;5.90;;;5.50;99.90;;;;;;5068775;28;20210;-77
2021/04/18 02:48:29;;;;;;;8.87;5.03;;;5.50;99.90;;;;;;5049343;28;20238;-81
2021/04/18 02:50:55;;;;;;;7.83;5.40;;;5.50;99.90;;;;;;5049825;28;20507;-84
2021/04/18 02:53:22;;;;;;;7.23;4.97;;;5.50;99.90;;;;;;5049188;28;20202;-85
2021/04/18 02:55:48;;;;;;;7.30;4.67;;;5.50;99.90;;;;;;5049218;28;20198;-84
2021/04/18 02:58:14;;;;;;;6.60;4.70;;;5.40;99.90;;;;;;5049601;28;20248;-80
2021/04/18 03:00:41;;;;;;;10.80;5.97;;;5.40;99.90;;;;;;5070465;28;20688;-83
2021/04/18 03:03:07;;;;;;;5.73;3.87;;;5.30;99.90;;;;;;5062565;28;20208;-80
2021/04/18 03:05:34;;;;;;;6.03;4.10;;;5.30;99.90;;;;;;5050441;28;20911;-86
2021/04/18 03:08:01;;;;;;;5.97;3.93;;;5.20;99.90;;;;;;5049968;28;20221;-86
2021/04/18 03:10:28;;;;;;;6.13;4.87;;;5.20;99.90;;;;;;5049142;28;20610;-87
2021/04/18 03:12:54;;;;;;;6.27;4.60;;;5.20;99.90;;;;;;5049232;28;20232;-86
2021/04/18 03:15:21;;;;;;;6.07;4.60;;;5.10;99.90;;;;;;5049070;28;20276;-86
2021/04/18 03:17:47;;;;;;;4.90;4.40;;;5.10;99.90;;;;;;5066649;28;20208;-86
2021/04/18 03:20:15;;;;;;;5.40;3.70;;;5.00;99.90;;;;;;5070423;28;20225;-85
2021/04/18 03:22:42;;;;;;;6.27;4.43;;;5.00;99.90;;;;;;5069861;28;20201;-86
2021/04/18 03:25:10;;;;;;;6.87;4.90;;;4.90;99.90;;;;;;5070320;28;20895;-79
2021/04/18 03:27:36;;;;;;;9.77;5.70;;;4.90;99.90;;;;;;5064120;28;20296;-86
2021/04/18 03:30:03;;;;;;;10.20;4.70;;;4.90;99.90;;;;;;5067941;28;20182;-86
2021/04/18 03:32:30;;;;;;;6.50;3.80;;;4.80;99.90;;;;;;5049331;28;20240;-85
2021/04/18 03:34:56;;;;;;;5.20;3.90;;;4.80;99.90;;;;;;5056986;28;20209;-85
2021/04/18 03:37:22;;;;;;;6.23;4.13;;;4.70;99.90;;;;;;5069542;28;20932;-86
2021/04/18 03:39:50;;;;;;;5.27;3.80;;;4.70;99.90;;;;;;5069444;28;20204;-85
2021/04/18 03:42:16;;;;;;;7.10;4.27;;;4.70;99.90;;;;;;5064650;28;20246;-79
2021/04/18 03:44:43;;;;;;;5.50;4.20;;;4.60;99.90;;;;;;5050510;28;20206;-85
2021/04/18 03:47:09;;;;;;;6.53;4.97;;;4.60;99.90;;;;;;5049227;28;20271;-86
2021/04/18 03:49:36;;;;;;;8.97;4.90;;;4.50;99.90;;;;;;5048367;28;20920;-86
2021/04/18 03:52:03;;;;;;;6.27;4.00;;;4.50;99.90;;;;;;5047558;28;20197;-82
2021/04/18 03:54:30;;;;;;;5.37;3.83;;;4.50;99.90;;;;;;5046150;28;20209;-80
2021/04/18 03:56:57;;;;;;;7.60;4.37;;;4.40;99.90;;;;;;5046346;28;20209;-86
2021/04/18 03:59:24;;;;;;;7.30;4.37;;;4.40;99.90;;;;;;5059877;28;20209;-84
2021/04/18 04:01:50;;;;;;;5.00;4.20;;;4.40;99.90;;;;;;5068689;28;20233;-85
2021/04/18 04:04:16;;;;;;;5.73;4.23;;;4.40;99.90;;;;;;5068945;28;20376;-81
2021/04/18 04:06:43;;;;;;;6.47;4.37;;;4.30;99.90;;;;;;5069026;28;20228;-79
2021/04/18 04:09:09;;;;;;;6.90;4.53;;;4.30;99.90;;;;;;5065294;28;20198;-86
2021/04/18 04:11:35;;;;;;;7.87;4.70;;;4.30;99.90;;;;;;5050751;28;20206;-78
2021/04/18 04:14:03;;;;;;;4.67;3.93;;;4.30;99.90;;;;;;5044455;28;20953;-80
2021/04/18 04:16:29;;;;;;;7.17;4.47;;;4.30;99.90;;;;;;5054572;28;20212;-81
2021/04/18 04:18:57;;;;;;;4.83;4.10;;;4.30;99.90;;;;;;5064850;28;20291;-79
2021/04/18 04:21:23;;;;;;;8.03;4.80;;;4.30;99.90;;;;;;5064810;28;20822;-83
2021/04/18 04:23:49;;;;;;;7.83;3.73;;;4.20;99.90;;;;;;5062501;28;20619;-80
2021/04/18 04:26:16;;;;;;;4.43;3.67;;;4.20;99.90;;;;;;5048680;28;20201;-79
2021/04/18 04:28:42;;;;;;;5.03;4.07;;;4.20;99.90;;;;;;5047839;28;20256;-85
2021/04/18 04:31:09;;;;;;;6.37;3.87;;;4.20;99.90;;;;;;5049374;28;20212;-85
2021/04/18 04:33:37;;;;;;;4.63;3.73;;;4.20;99.90;;;;;;5048280;28;20942;-85
2021/04/18 04:36:05;;;;;;;5.17;3.57;;;4.20;99.90;;;;;;5043881;28;20202;-85
2021/04/18 04:38:31;;;;;;;6.70;4.30;;;4.20;99.90;;;;;;5045417;28;20220;-85
2021/04/18 04:40:58;;;;;;;6.27;4.30;;;4.10;99.90;;;;;;5056823;28;20233;-84
2021/04/18 04:43:24;;;;;;;8.03;4.80;;;4.10;99.90;;;;;;5069055;28;20216;-83
2021/04/18 04:45:51;;;;;;;6.70;4.70;;;4.10;99.90;;;;;;5069390;28;20205;-85
2021/04/18 04:48:18;;;;;;;9.20;4.30;;;4.10;99.90;;;;;;5053120;28;20317;-84
2021/04/18 04:50:45;;;;;;;5.07;3.57;;;4.00;99.90;;;;;;5049387;28;20208;-86
2021/04/18 04:53:11;;;;;;;6.50;4.73;;;4.00;99.90;;;;;;5048932;28;20609;-86
2021/04/18 04:55:37;;;;;;;7.20;4.43;;;4.00;99.90;;;;;;5048058;28;20218;-87
2021/04/18 04:58:18;;;;;;;5.47;4.00;;;4.00;99.90;;;;;;5106453;27;20849;-86
2021/04/18 05:00:44;;;;;;;6.70;4.17;;;4.00;99.90;;;;;;5106819;28;20222;-86
2021/04/18 05:03:11;;;;;;;7.67;4.50;;;4.00;99.90;;;;;;5095138;28;20227;-86
2021/04/18 05:05:37;;;;;;;6.43;4.37;;;4.00;99.90;;;;;;5086165;28;20204;-87
2021/04/18 05:08:04;;;;;;;5.57;4.17;;;4.00;99.90;;;;;;5081928;28;20212;-87
2021/04/18 05:10:31;;;;;;;6.80;4.37;;;4.00;99.90;;;;;;5086541;28;20287;-85
2021/04/18 05:12:57;;;;;;;8.27;4.70;;;4.00;99.90;;;;;;5086743;28;20254;-82
2021/04/18 05:15:24;;;;;;;5.60;4.47;;;4.10;99.90;;;;;;5086202;28;20188;-87
2021/04/18 05:17:51;;;;;;;9.77;5.37;;;4.10;99.90;;;;;;5085215;28;20235;-84
2021/04/18 05:20:17;;;;;;;6.70;4.77;;;4.10;99.90;;;;;;5085330;28;20212;-88
2021/04/18 05:22:44;;;;;;;6.70;4.63;;;4.20;99.90;;;;;;5086651;28;20212;-88
2021/04/18 05:25:12;;;;;;;6.67;5.27;;;4.30;99.90;;;;;;5084399;28;20204;-87
2021/04/18 05:27:38;;;;;;;6.97;4.93;;;4.30;99.90;;;;;;5082948;28;20660;-87
2021/04/18 05:30:06;;;;;;;8.90;6.30;;;4.40;99.90;;;;;;5082404;28;20223;-87
2021/04/18 05:32:34;;;;;;;11.97;5.23;;;4.50;99.90;;;;;;5083660;28;20209;-88
2021/04/18 05:35:00;;;;;;;9.30;5.30;;;4.60;99.90;;;;;;5082943;28;20199;-85
2021/04/18 05:37:27;;;;;;;9.43;5.67;;;4.70;99.90;;;;;;5081653;28;20224;-88
2021/04/18 05:39:53;;;;;;;10.17;5.93;;;4.70;99.90;;;;;;5080958;28;20220;-84
2021/04/18 05:42:20;;;;;;;7.63;5.37;;;4.80;99.90;;;;;;5080952;28;20212;-87
2021/04/18 05:44:46;;;;;;;10.87;5.83;;;4.90;99.90;;;;;;5081673;28;20196;-88
2021/04/18 05:47:12;;;;;;;7.03;5.20;;;5.00;99.90;;;;;;5080071;28;20215;-88
2021/04/18 05:49:39;;;;;;;8.87;5.27;;;5.00;99.90;;;;;;5080493;28;20320;-86
2021/04/18 05:52:06;;;;;;;9.77;5.30;;;5.10;99.90;;;;;;5080063;28;20200;-82
2021/04/18 05:54:33;;;;;;;7.13;5.30;;;5.10;99.90;;;;;;5080755;28;20287;-82
2021/04/18 05:56:59;;;;;;;6.77;4.97;;;5.20;99.90;;;;;;5091471;28;20248;-82
2021/04/18 05:59:26;;;;;;;10.47;5.57;;;5.20;99.90;;;;;;5104168;28;20204;-84
2021/04/18 06:01:52;;;;;;;11.80;6.00;;;5.30;99.90;;;;;;5084289;28;20212;-87
2021/04/18 06:04:18;;;;;;;14.77;6.70;;;5.30;99.90;;;;;;5081051;28;20269;-80
2021/04/18 06:06:46;;;;;;;9.77;6.50;;;5.40;99.90;;;;;;5081301;28;20555;-84
2021/04/18 06:09:12;;;;;;;9.20;5.97;;;5.50;99.90;;;;;;5069601;28;20213;-79
2021/04/18 06:11:38;;;;;;;12.33;6.50;;;5.50;99.90;;;;;;5080892;28;20235;-79
2021/04/18 06:14:04;;;;;;;13.60;6.20;;;5.60;99.90;;;;;;5079526;28;20204;-85
2021/04/18 06:16:31;;;;;;;11.37;7.07;;;5.60;99.90;;;;;;5065912;28;20221;-83
2021/04/18 06:18:57;;;;;;;11.17;6.37;;;5.70;99.90;;;;;;5066338;28;20205;-79
2021/04/18 06:21:23;;;;;;;13.00;6.80;;;5.70;99.90;;;;;;5065524;28;20612;-79
2021/04/18 06:23:51;;;;;;;12.30;6.80;;;5.80;99.90;;;;;;5065489;28;20499;-77
2021/04/18 06:26:17;;;;;;;17.47;7.83;;;5.90;99.90;;;;;;5066661;28;20289;-83
2021/04/18 06:28:44;;;;;;;13.83;7.97;;;5.90;99.90;;;;;;5064541;28;20216;-82
2021/04/18 06:31:10;;;;;;;13.90;7.90;;;6.00;99.90;;;;;;5064804;28;20504;-83
2021/04/18 06:33:37;;;;;;;17.10;7.87;;;6.10;99.90;;;;;;5064323;28;20240;-82
2021/04/18 06:36:03;;;;;;;15.03;6.97;;;6.20;99.90;;;;;;5069808;28;20209;-81
2021/04/18 06:38:29;;;;;;;10.43;6.97;;;6.30;99.90;;;;;;5067955;28;20292;-86
2021/04/18 06:40:57;;;;;;;11.73;6.97;;;6.40;99.90;;;;;;5048348;28;20245;-82
2021/04/18 06:43:24;;;;;;;19.03;6.90;;;6.50;99.90;;;;;;5074975;28;20304;-83
2021/04/18 06:45:52;;;;;;;13.53;6.23;;;6.60;99.90;;;;;;5068621;28;20223;-78
2021/04/18 06:48:19;;;;;;;15.60;6.00;;;6.70;99.90;;;;;;5089057;28;20233;-87
2021/04/18 06:50:46;;;;;;;17.07;7.93;;;6.80;99.90;;;;;;5091479;28;20850;-84
2021/04/18 06:53:12;;;;;;;12.90;6.83;;;6.90;99.90;;;;;;5092246;28;20196;-87
2021/04/18 06:55:40;;;;;;;15.80;7.03;;;7.00;99.90;;;;;;5089938;28;20698;-87
2021/04/18 06:58:08;;;;;;;16.97;7.00;;;7.20;99.90;;;;;;5075160;28;20247;-83
2021/04/18 07:00:34;;;;;;;13.00;6.73;;;7.30;99.90;;;;;;5070369;28;20484;-84
2021/04/18 07:03:12;;;;;;;16.00;7.77;;;7.40;99.90;;;;;;5070465;28;20205;-83
2021/04/18 07:05:43;;;;;;;18.77;7.87;;;7.60;99.90;;;;;;5074676;28;20200;-83
2021/04/18 07:08:19;;;;;;;10.67;6.77;;;7.80;99.90;;;;;;5070868;28;20216;-83
2021/04/18 07:10:46;;;;;;;14.87;7.73;;;8.10;99.90;;;;;;5066344;28;20266;-81
2021/04/18 07:13:16;;;;;;;12.87;7.13;;;8.30;99.90;;;;;;5066506;28;20201;-80
2021/04/18 07:15:45;;;;;;;13.53;6.33;;;8.40;99.90;;;;;;5066187;28;20271;-83
2021/04/18 07:18:14;;;;;;;12.53;6.33;;;8.60;99.90;;;;;;5065500;28;20237;-80
2021/04/18 07:20:54;;;;;;;11.50;6.37;;;8.90;99.90;;;;;;5064705;28;20497;-80
2021/04/18 07:23:25;;;;;;;11.63;6.57;;;9.30;99.90;;;;;;5064345;28;20205;-82
2021/04/18 07:25:52;;;;;;;9.67;5.97;;;9.70;99.90;;;;;;5064846;28;20213;-82
2021/04/18 07:28:23;;;;;;;11.43;5.70;;;10.10;99.90;;;;;;5064400;28;20193;-82
2021/04/18 07:30:51;;;;;;;15.97;5.97;;;10.40;99.90;;;;;;5064377;28;20198;-81
2021/04/18 07:33:18;;;;;;;11.57;6.07;;;10.60;99.90;;;;;;5073209;28;20208;-81
2021/04/18 07:35:45;;;;;;;12.00;4.77;;;10.70;99.90;;;;;;5085578;28;20498;-79
2021/04/18 07:38:17;;;;;;;12.07;5.77;;;11.00;99.90;;;;;;5084532;28;20231;-82
2021/04/18 07:40:44;;;;;;;10.13;5.20;;;11.10;99.90;;;;;;5067516;28;20219;-83
2021/04/18 07:43:11;;;;;;;9.33;4.63;;;11.20;99.90;;;;;;5065063;28;20290;-82
2021/04/18 07:45:40;;;;;;;8.87;5.30;;;11.40;99.90;;;;;;5073867;28;20230;-81
2021/04/18 07:48:10;;;;;;;8.80;5.50;;;11.50;99.90;;;;;;5086759;28;20216;-80
2021/04/18 07:50:37;;;;;;;7.20;4.83;;;11.60;99.90;;;;;;5079381;28;20205;-78
2021/04/18 07:53:06;;;;;;;9.57;4.77;;;11.80;99.90;;;;;;5064061;28;20292;-78
2021/04/18 07:55:33;;;;;;;9.97;4.87;;;11.90;99.90;;;;;;5064928;28;20220;-81
2021/04/18 07:57:59;;;;;;;10.00;4.80;;;12.10;99.90;;;;;;5067988;28;20237;-83
2021/04/18 08:00:26;;;;;;;7.67;4.77;;;12.30;99.90;;;;;;5065744;28;20603;-83
2021/04/18 08:02:54;;;;;;;9.60;4.77;;;12.40;99.90;;;;;;5067001;28;20242;-82
2021/04/18 08:05:23;;;;;;;9.13;4.70;;;12.60;99.90;;;;;;5067937;28;20300;-82
2021/04/18 08:08:05;;;;;;;14.20;4.83;;;12.90;99.90;;;;;;5086908;28;20204;-83
2021/04/18 08:10:34;;;;;;;7.43;3.70;;;13.20;99.90;;;;;;5087133;28;20210;-81
2021/04/18 08:13:05;;;;;;;9.63;4.30;;;13.30;99.90;;;;;;5080867;28;20213;-81
2021/04/18 08:15:33;;;;;;;11.67;4.90;;;13.60;99.90;;;;;;5067606;28;20579;-78
2021/04/18 08:18:06;;;;;;;6.57;3.50;;;13.70;99.90;;;;;;5070387;28;20231;-83
2021/04/18 08:20:35;;;;;;;7.73;4.00;;;13.80;99.90;;;;;;5088113;28;20242;-83
2021/04/18 08:23:04;;;;;;;6.20;3.07;;;14.00;99.90;;;;;;5087026;28;20276;-77
2021/04/18 08:25:31;;;;;;;7.77;3.30;;;14.20;99.90;;;;;;5085326;28;20608;-77
2021/04/18 08:28:02;;;;;;;5.87;3.17;;;14.40;99.90;;;;;;5072261;28;20268;-82
2021/04/18 08:30:30;;;;;;;6.20;3.13;;;14.60;99.90;;;;;;5063070;28;20193;-79
2021/04/18 08:32:57;;;;;;;8.30;3.60;;;14.90;99.90;;;;;;5063360;28;20213;-83
2021/04/18 08:35:28;;;;;;;10.15;3.70;;;15.20;99.90;;;;;;5063603;28;20218;-77
2021/04/18 08:38:18;;;;;;;7.67;4.13;;;14.90;99.90;;;;;;5063235;28;20220;-79
2021/04/18 08:40:45;;;;;;;8.93;3.95;;;14.80;99.90;;;;;;5064046;28;20201;-82
2021/04/18 08:43:18;;;;;;;9.33;4.10;;;14.70;99.90;;;;;;5063439;28;20582;-77
2021/04/18 08:45:49;;;;;;;8.57;3.37;;;14.80;99.90;;;;;;5063879;28;20754;-80
2021/04/18 08:48:15;;;;;;;5.23;3.67;;;14.80;99.90;;;;;;5062870;28;20632;-78
2021/04/18 08:50:57;;;;;;;7.97;3.40;;;15.00;99.90;;;;;;5063343;28;20928;-79
2021/04/18 08:53:24;;;;;;;8.00;2.87;;;14.90;99.90;;;;;;5064655;28;20203;-80
2021/04/18 08:55:56;;;;;;;7.60;3.43;;;14.80;99.90;;;;;;5065682;28;20213;-81
2021/04/18 08:58:37;;;;;;;7.10;3.70;;;15.00;99.90;;;;;;5063799;28;20231;-82
2021/04/18 09:01:05;;;;;;;5.20;3.10;;;15.00;99.90;;;;;;5063069;28;20324;-82
2021/04/18 09:03:31;;;;;;;8.38;3.80;;;15.40;99.90;;;;;;5064787;28;20193;-81
2021/04/18 09:06:11;;;;;;;5.13;3.40;;;15.70;99.90;;;;;;5064838;28;20609;-80
2021/04/18 09:08:49;;;;;;;7.77;4.13;;;15.60;99.90;;;;;;5065853;28;20315;-82
2021/04/18 09:11:15;;;;;;;11.15;5.32;;;15.70;99.90;;;;;;5065242;28;20208;-80
2021/04/18 09:13:53;;;;;;;7.20;4.20;;;15.50;99.90;;;;;;5065013;28;20768;-81
2021/04/18 09:16:24;;;;;;;10.40;4.30;;;15.40;99.90;;;;;;5065051;28;20605;-80
2021/04/18 09:18:50;;;;;;;7.35;3.72;;;15.60;99.90;;;;;;5065381;28;20216;-81
2021/04/18 09:21:18;;;;;;;7.63;4.25;;;15.50;99.90;;;;;;5065282;28;20197;-80
2021/04/18 09:24:01;;;;;;;8.13;4.07;;;15.70;99.90;;;;;;5065235;28;20258;-80
2021/04/18 09:26:27;;;;;;;7.47;4.53;;;15.20;99.90;;;;;;5065383;28;20255;-82
2021/04/18 09:29:10;;;;;;;8.63;4.50;;;15.30;99.90;;;;;;5085897;28;20449;-82
2021/04/18 09:32:03;;;;;;;5.27;3.53;;;15.60;99.90;;;;;;5070372;28;20201;-81
2021/04/18 09:34:30;;;;;;;6.40;3.63;;;16.00;99.90;;;;;;5064542;28;20240;-83
2021/04/18 09:36:59;;;;;;;7.13;4.37;;;16.30;99.90;;;;;;5064421;28;20221;-82
2021/04/18 09:39:29;;;;;;;12.25;4.25;;;16.50;99.90;;;;;;5062063;28;20213;-81
2021/04/18 09:41:57;;;;;;;6.32;3.40;;;16.70;99.90;;;;;;5063893;28;20233;-81
2021/04/18 09:44:33;;;;;;;14.80;4.57;;;16.70;99.90;;;;;;5065066;28;20749;-80
2021/04/18 09:47:03;;;;;;;9.35;3.67;;;16.80;99.90;;;;;;5066765;28;20204;-81
2021/04/18 09:49:47;;;;;;;7.78;3.88;;;16.90;99.90;;;;;;5067237;28;20228;-81
2021/04/18 09:52:29;;;;;;;10.63;3.92;;;17.00;99.90;;;;;;5065831;28;20244;-81
2021/04/18 09:55:13;;;;;;;8.30;3.67;;;17.10;99.90;;;;;;5066910;28;20201;-81
2021/04/18 09:57:41;;;;;;;8.48;3.63;;;17.20;99.90;;;;;;5067697;28;20237;-79
2021/04/18 10:00:11;;;;;;;9.35;3.75;;;17.10;99.90;;;;;;5064004;28;20239;-81
2021/04/18 10:02:37;;;;;;;9.63;3.97;;;17.10;99.90;;;;;;5065484;28;20205;-80
2021/04/18 10:05:10;;;;;;;12.90;4.70;;;17.00;99.90;;;;;;5065541;28;20322;-83
2021/04/18 10:07:37;;;;;;;30.42;27.75;;;16.80;99.90;;;;;;5064852;28;20209;-80
2021/04/18 10:10:04;;;;;;;10.98;6.85;;;16.50;99.90;;;;;;5067376;28;20209;-81
2021/04/18 10:12:51;;;;;;;8.05;4.60;;;16.60;99.90;;;;;;5067178;28;20217;-81
2021/04/18 10:15:19;;;;;;;9.52;4.40;;;16.50;99.90;;;;;;5066315;28;20192;-82
2021/04/18 10:17:46;;;;;;;12.97;5.13;;;16.00;99.90;;;;;;5067902;28;20295;-81
2021/04/18 10:20:22;;;;;;;9.73;4.90;;;15.80;99.90;;;;;;5066961;28;20213;-82
2021/04/18 10:23:03;;;;;;;10.27;4.30;;;15.70;99.90;;;;;;5068728;28;20580;-82
2021/04/18 10:25:29;;;;;;;10.30;3.97;;;15.80;99.90;;;;;;5068853;28;20205;-81
2021/04/18 10:27:56;;;;;;;9.53;4.27;;;15.90;99.90;;;;;;5066747;28;20206;-80
2021/04/18 10:30:23;;;;;;;8.80;4.20;;;15.80;99.90;;;;;;5064806;28;20601;-82
2021/04/18 10:32:50;;;;;;;14.77;4.93;;;15.80;99.90;;;;;;5070442;28;20201;-78
2021/04/18 10:35:16;;;;;;;12.37;5.13;;;15.90;99.90;;;;;;5085966;28;20197;-80
2021/04/18 10:37:44;;;;;;;9.13;4.07;;;15.90;99.90;;;;;;5084580;28;20232;-81
2021/04/18 10:40:12;;;;;;;14.68;4.85;;;15.90;99.90;;;;;;5085254;28;20208;-79
2021/04/18 10:42:39;;;;;;;12.00;5.13;;;16.20;99.90;;;;;;5086489;28;20255;-79
2021/04/18 10:45:06;;;;;;;10.90;4.73;;;16.10;99.90;;;;;;5082294;28;20699;-80
2021/04/18 10:47:33;;;;;;;11.07;4.43;;;16.00;99.90;;;;;;5064273;28;20193;-80
2021/04/18 10:50:02;;;;;;;10.73;5.73;;;15.80;99.90;;;;;;5064076;28;20601;-79
2021/04/18 10:52:28;;;;;;;13.27;5.55;;;15.80;99.90;;;;;;5070065;28;20240;-78
2021/04/18 10:54:54;;;;;;;13.50;4.97;;;15.50;99.90;;;;;;5076148;28;20201;-78
2021/04/18 10:57:22;;;;;;;11.13;4.70;;;15.60;99.90;;;;;;5065034;28;20241;-79
2021/04/18 10:59:48;;;;;;;13.15;6.72;;;15.90;99.90;;;;;;5066616;28;20205;-80
2021/04/18 11:02:15;;;;;;;12.63;4.93;;;15.90;99.90;;;;;;5064759;28;20209;-80
2021/04/18 11:04:41;;;;;;;9.00;4.47;;;16.10;99.90;;;;;;5067208;28;20343;-86
2021/04/18 11:07:08;;;;;;;9.87;5.07;;;15.90;99.90;;;;;;5068192;28;20193;-80
2021/04/18 11:09:36;;;;;;;9.75;4.63;;;15.70;99.90;;;;;;5066790;28;20209;-83
2021/04/18 11:12:02;;;;;;;9.30;4.77;;;15.70;99.90;;;;;;5066977;28;20205;-84
2021/04/18 11:14:29;;;;;;;7.30;4.38;;;15.60;99.90;;;;;;5067202;28;20278;-83
2021/04/18 11:16:56;;;;;;;11.80;4.57;;;15.30;99.90;;;;;;5066337;28;20896;-83
2021/04/18 11:19:22;;;;;;;15.43;9.47;;;15.00;99.90;;;;;;5066802;28;20651;-84
2021/04/18 11:21:48;;;;;;;21.40;10.93;;;14.80;99.90;;;;;;5067412;28;20219;-81
2021/04/18 11:24:15;;;;;;;11.17;5.03;;;14.60;99.90;;;;;;5066467;28;20205;-82
2021/04/18 11:26:42;;;;;;;11.23;4.70;;;14.60;99.90;;;;;;5064853;28;20208;-80
2021/04/18 11:29:09;;;;;;;9.80;4.43;;;14.50;99.90;;;;;;5064917;28;20612;-84
2021/04/18 11:31:36;;;;;;;11.77;4.37;;;14.40;99.90;;;;;;5066147;28;20202;-83
2021/04/18 11:34:02;;;;;;;10.60;4.00;;;14.50;99.90;;;;;;5068234;28;20193;-83
2021/04/18 11:36:29;;;;;;;11.60;6.07;;;14.80;99.90;;;;;;5079432;28;20259;-81
2021/04/18 11:38:55;;;;;;;11.20;4.07;;;15.30;99.90;;;;;;5086267;28;20877;-82
2021/04/18 11:41:21;;;;;;;8.03;4.00;;;15.50;99.90;;;;;;5085901;28;20590;-83
2021/04/18 11:43:47;;;;;;;11.50;5.23;;;15.80;99.90;;;;;;5085509;28;20228;-83
2021/04/18 11:46:14;;;;;;;11.07;5.07;;;15.70;99.90;;;;;;5069229;28;20202;-83
2021/04/18 11:48:41;;;;;;;9.40;3.87;;;15.50;99.90;;;;;;5068605;28;20221;-82
2021/04/18 11:51:08;;;;;;;14.13;5.47;;;15.40;99.90;;;;;;5068484;28;20206;-82
2021/04/18 11:53:34;;;;;;;12.77;4.23;;;15.20;99.90;;;;;;5068059;28;20194;-82
2021/04/18 11:56:01;;;;;;;13.27;5.03;;;15.20;99.90;;;;;;5066599;28;20248;-83
2021/04/18 11:58:27;;;;;;;10.07;5.13;;;15.10;99.90;;;;;;5067143;28;20221;-85
2021/04/18 12:00:53;;;;;;;10.23;4.60;;;15.10;99.90;;;;;;5070098;28;20551;-86
2021/04/18 12:03:20;;;;;;;10.17;4.47;;;15.10;99.90;;;;;;5069673;28;20216;-85
2021/04/18 12:05:47;;;;;;;12.53;4.87;;;15.20;99.90;;;;;;5066326;28;20308;-80
2021/04/18 12:08:16;;;;;;;15.20;5.63;;;15.20;99.90;;;;;;5065965;28;20205;-83
2021/04/18 12:10:42;;;;;;;17.13;6.70;;;15.30;99.90;;;;;;5066764;28;20201;-84
2021/04/18 12:13:09;;;;;;;14.10;5.00;;;15.30;99.90;;;;;;5069077;28;20216;-89
2021/04/18 12:15:35;;;;;;;11.17;5.47;;;15.50;99.90;;;;;;5069639;28;20228;-88
2021/04/18 12:18:02;;;;;;;16.57;4.60;;;15.30;99.90;;;;;;5069180;28;20225;-87
2021/04/18 12:20:28;;;;;;;11.53;5.20;;;15.20;99.90;;;;;;5068615;28;20235;-84
2021/04/18 12:22:55;;;;;;;12.57;5.17;;;15.00;99.90;;;;;;5068727;28;20197;-84
2021/04/18 12:25:22;;;;;;;13.63;5.10;;;15.10;99.90;;;;;;5069286;28;20648;-83
2021/04/18 12:27:48;;;;;;;14.57;5.57;;;15.10;99.90;;;;;;5068362;28;20231;-86
2021/04/18 12:30:15;;;;;;;8.97;4.53;;;15.20;99.90;;;;;;5068279;28;20229;-84
2021/04/18 12:32:45;;;;;;;14.10;4.93;;;15.20;99.90;;;;;;5068311;28;20205;-82
2021/04/18 12:35:12;;;;;;;14.10;4.83;;;15.20;99.90;;;;;;5068855;28;20967;-86
2021/04/18 12:37:39;;;;;;;12.80;5.23;;;15.20;99.90;;;;;;5078791;28;20232;-81
2021/04/18 12:40:08;;;;;;;12.40;5.10;;;15.20;99.90;;;;;;5087275;28;20246;-84
2021/04/18 12:42:35;;;;;;;11.27;4.47;;;15.30;99.90;;;;;;5076745;28;20925;-82
2021/04/18 12:45:02;;;;;;;7.13;3.97;;;15.50;99.90;;;;;;5063381;28;20642;-83
2021/04/18 12:47:28;;;;;;;15.43;5.33;;;15.70;99.90;;;;;;5064164;28;20205;-79
2021/04/18 12:49:56;;;;;;;15.20;5.17;;;15.60;99.90;;;;;;5064237;28;20212;-79
2021/04/18 12:52:22;;;;;;;19.70;5.53;;;15.60;99.90;;;;;;5063325;28;20201;-82